sensor_id;sensor_type;location;lat;lon;timestamp;temperature;humidity
18974;DHT22;9621;48.690;9.466;2022-09-17T00:00:37;8.40;99.90
18974;DHT22;9621;48.690;9.466;2022-09-17T00:03:05;9.50;99.90
18974;DHT22;9621;48.690;9.466;2022-09-17T00:05:34;8.50;99.90
18974;DHT22;9621;48.690;9.466;2022-09-17T00:08:02;8.70;99.90
18974;DHT22;9621;48.690;9.466;2022-09-17T00:10:30;9.90;99.90
18974;DHT22;9621;48.690;9.466;2022-09-17T00:12:59;8.60;99.90
18974;DHT22;9621;48.690;9.466;2022-09-17T00:15:29;8.40;99.90
18974;DHT22;9621;48.690;9.466;2022-09-17T00:17:56;8.40;99.90
18974;DHT22;9621;48.690;9.466;2022-09-17T00:20:24;8.40;99.90
18974;DHT22;9621;48.690;9.466;2022-09-17T00:22:52;9.10;99.90
18974;DHT22;9621;48.690;9.466;2022-09-17T00:25:20;8.30;99.90
18974;DHT22;9621;48.690;9.466;2022-09-17T00:27:47;8.40;99.90
18974;DHT22;9621;48.690;9.466;2022-09-17T00:30:16;9.30;99.90
18974;DHT22;9621;48.690;9.466;2022-09-17T00:32:43;7.10;99.90
18974;DHT22;9621;48.690;9.466;2022-09-17T00:35:10;8.20;99.90
18974;DHT22;9621;48.690;9.466;2022-09-17T00:37:37;8.20;99.90
18974;DHT22;9621;48.690;9.466;2022-09-17T00:40:05;8.40;99.90
18974;DHT22;9621;48.690;9.466;2022-09-17T00:42:32;8.20;99.90
18974;DHT22;9621;48.690;9.466;2022-09-17T00:44:59;8.90;99.90
18974;DHT22;9621;48.690;9.466;2022-09-17T00:47:33;8.10;99.90
18974;DHT22;9621;48.690;9.466;2022-09-17T00:50:04;8.50;99.90
18974;DHT22;9621;48.690;9.466;2022-09-17T00:52:34;8.20;99.90
18974;DHT22;9621;48.690;9.466;2022-09-17T00:55:07;8.70;99.90
18974;DHT22;9621;48.690;9.466;2022-09-17T00:57:35;8.00;99.90
18974;DHT22;9621;48.690;9.466;2022-09-17T01:00:04;8.00;99.90
18974;DHT22;9621;48.690;9.466;2022-09-17T01:02:33;8.00;99.90
18974;DHT22;9621;48.690;9.466;2022-09-17T01:05:01;8.00;99.90
18974;DHT22;9621;48.690;9.466;2022-09-17T01:07:47;8.10;99.90
18974;DHT22;9621;48.690;9.466;2022-09-17T01:10:32;8.00;99.90
18974;DHT22;9621;48.690;9.466;2022-09-17T01:13:09;8.10;99.90
18974;DHT22;9621;48.690;9.466;2022-09-17T01:15:42;7.80;99.90
18974;DHT22;9621;48.690;9.466;2022-09-17T01:18:31;7.90;99.90
18974;DHT22;9621;48.690;9.466;2022-09-17T01:21:29;8.50;99.90
18974;DHT22;9621;48.690;9.466;2022-09-17T01:30:29;8.00;99.90
18974;DHT22;9621;48.690;9.466;2022-09-17T01:32:59;8.10;99.90
18974;DHT22;9621;48.690;9.466;2022-09-17T01:35:33;9.30;99.90
18974;DHT22;9621;48.690;9.466;2022-09-17T01:38:08;9.40;99.90
18974;DHT22;9621;48.690;9.466;2022-09-17T01:40:42;8.10;99.90
18974;DHT22;9621;48.690;9.466;2022-09-17T01:43:18;9.20;99.90
18974;DHT22;9621;48.690;9.466;2022-09-17T01:45:50;9.60;99.90
18974;DHT22;9621;48.690;9.466;2022-09-17T01:48:18;8.70;99.90
18974;DHT22;9621;48.690;9.466;2022-09-17T01:50:51;8.10;99.90
18974;DHT22;9621;48.690;9.466;2022-09-17T01:53:21;9.40;99.90
18974;DHT22;9621;48.690;9.466;2022-09-17T01:55:51;8.60;99.90
18974;DHT22;9621;48.690;9.466;2022-09-17T01:58:21;8.00;99.90
18974;DHT22;9621;48.690;9.466;2022-09-17T02:00:57;7.90;99.90
18974;DHT22;9621;48.690;9.466;2022-09-17T02:03:29;7.90;99.90
18974;DHT22;9621;48.690;9.466;2022-09-17T02:06:00;8.00;99.90
18974;DHT22;9621;48.690;9.466;2022-09-17T02:08:34;8.50;99.90
18974;DHT22;9621;48.690;9.466;2022-09-17T02:11:04;8.20;99.90
18974;DHT22;9621;48.690;9.466;2022-09-17T02:13:36;8.00;99.90
18974;DHT22;9621;48.690;9.466;2022-09-17T02:16:09;8.00;99.90
18974;DHT22;9621;48.690;9.466;2022-09-17T02:18:43;8.00;99.90
18974;DHT22;9621;48.690;9.466;2022-09-17T02:21:15;8.60;99.90
18974;DHT22;9621;48.690;9.466;2022-09-17T02:23:48;9.40;99.90
18974;DHT22;9621;48.690;9.466;2022-09-17T02:26:19;8.00;99.90
18974;DHT22;9621;48.690;9.466;2022-09-17T02:28:50;7.60;99.90
18974;DHT22;9621;48.690;9.466;2022-09-17T02:31:20;8.10;99.90
18974;DHT22;9621;48.690;9.466;2022-09-17T02:33:52;8.00;99.90
18974;DHT22;9621;48.690;9.466;2022-09-17T02:36:21;9.50;99.90
18974;DHT22;9621;48.690;9.466;2022-09-17T02:38:57;8.10;99.90
18974;DHT22;9621;48.690;9.466;2022-09-17T02:41:39;8.90;99.90
18974;DHT22;9621;48.690;9.466;2022-09-17T02:44:17;8.10;99.90
18974;DHT22;9621;48.690;9.466;2022-09-17T02:46:58;8.80;99.90
18974;DHT22;9621;48.690;9.466;2022-09-17T02:49:42;9.60;99.90
18974;DHT22;9621;48.690;9.466;2022-09-17T02:52:22;8.80;99.90
18974;DHT22;9621;48.690;9.466;2022-09-17T02:55:00;8.90;99.90
18974;DHT22;9621;48.690;9.466;2022-09-17T02:57:37;7.00;99.90
18974;DHT22;9621;48.690;9.466;2022-09-17T03:00:10;9.20;99.90
18974;DHT22;9621;48.690;9.466;2022-09-17T03:02:42;7.90;99.90
18974;DHT22;9621;48.690;9.466;2022-09-17T03:05:12;8.00;99.90
18974;DHT22;9621;48.690;9.466;2022-09-17T03:07:40;8.70;99.90
18974;DHT22;9621;48.690;9.466;2022-09-17T03:10:07;8.40;99.90
18974;DHT22;9621;48.690;9.466;2022-09-17T03:12:35;7.60;99.90
18974;DHT22;9621;48.690;9.466;2022-09-17T03:15:04;7.60;99.90
18974;DHT22;9621;48.690;9.466;2022-09-17T03:17:31;7.50;99.90
18974;DHT22;9621;48.690;9.466;2022-09-17T03:19:59;9.00;99.90
18974;DHT22;9621;48.690;9.466;2022-09-17T03:22:26;7.50;99.90
18974;DHT22;9621;48.690;9.466;2022-09-17T03:24:53;7.40;99.90
18974;DHT22;9621;48.690;9.466;2022-09-17T03:27:20;7.40;99.90
18974;DHT22;9621;48.690;9.466;2022-09-17T03:29:48;8.20;99.90
18974;DHT22;9621;48.690;9.466;2022-09-17T03:32:15;7.40;99.90
18974;DHT22;9621;48.690;9.466;2022-09-17T03:34:42;8.50;99.90
18974;DHT22;9621;48.690;9.466;2022-09-17T03:37:10;7.90;99.90
18974;DHT22;9621;48.690;9.466;2022-09-17T03:39:38;7.30;99.90
18974;DHT22;9621;48.690;9.466;2022-09-17T03:42:19;7.60;99.90
18974;DHT22;9621;48.690;9.466;2022-09-17T03:45:10;7.30;99.90
18974;DHT22;9621;48.690;9.466;2022-09-17T03:47:56;7.20;99.90
18974;DHT22;9621;48.690;9.466;2022-09-17T03:50:34;7.30;99.90
18974;DHT22;9621;48.690;9.466;2022-09-17T03:53:24;7.30;99.90
18974;DHT22;9621;48.690;9.466;2022-09-17T03:56:05;7.20;99.90
18974;DHT22;9621;48.690;9.466;2022-09-17T03:59:00;7.30;99.90
18974;DHT22;9621;48.690;9.466;2022-09-17T04:01:33;7.00;99.90
18974;DHT22;9621;48.690;9.466;2022-09-17T04:04:10;7.00;99.90
18974;DHT22;9621;48.690;9.466;2022-09-17T04:06:55;7.10;99.90
18974;DHT22;9621;48.690;9.466;2022-09-17T04:09:41;7.00;99.90
18974;DHT22;9621;48.690;9.466;2022-09-17T04:12:23;7.10;99.90
18974;DHT22;9621;48.690;9.466;2022-09-17T04:14:58;6.90;99.90
18974;DHT22;9621;48.690;9.466;2022-09-17T04:17:27;6.70;99.90
18974;DHT22;9621;48.690;9.466;2022-09-17T04:20:09;7.00;99.90
18974;DHT22;9621;48.690;9.466;2022-09-17T04:22:48;7.20;99.90
18974;DHT22;9621;48.690;9.466;2022-09-17T04:25:37;7.00;99.90
18974;DHT22;9621;48.690;9.466;2022-09-17T04:28:09;6.90;99.90
18974;DHT22;9621;48.690;9.466;2022-09-17T04:30:42;7.20;99.90
18974;DHT22;9621;48.690;9.466;2022-09-17T04:33:13;7.30;99.90
18974;DHT22;9621;48.690;9.466;2022-09-17T04:35:51;7.20;99.90
18974;DHT22;9621;48.690;9.466;2022-09-17T04:38:19;6.40;99.90
18974;DHT22;9621;48.690;9.466;2022-09-17T04:41:11;7.20;99.90
18974;DHT22;9621;48.690;9.466;2022-09-17T04:43:46;7.70;99.90
18974;DHT22;9621;48.690;9.466;2022-09-17T04:46:20;7.90;99.90
18974;DHT22;9621;48.690;9.466;2022-09-17T04:48:59;7.50;99.90
18974;DHT22;9621;48.690;9.466;2022-09-17T04:54:44;7.70;99.90
18974;DHT22;9621;48.690;9.466;2022-09-17T04:57:23;7.50;99.90
18974;DHT22;9621;48.690;9.466;2022-09-17T05:00:09;7.70;99.90
18974;DHT22;9621;48.690;9.466;2022-09-17T05:02:52;7.60;99.90
18974;DHT22;9621;48.690;9.466;2022-09-17T05:05:20;7.80;99.90
18974;DHT22;9621;48.690;9.466;2022-09-17T05:07:47;8.80;99.90
18974;DHT22;9621;48.690;9.466;2022-09-17T05:10:16;9.00;99.90
18974;DHT22;9621;48.690;9.466;2022-09-17T05:12:48;8.90;99.90
18974;DHT22;9621;48.690;9.466;2022-09-17T05:15:15;9.00;99.90
18974;DHT22;9621;48.690;9.466;2022-09-17T05:17:43;7.80;99.90
18974;DHT22;9621;48.690;9.466;2022-09-17T05:20:11;8.30;99.90
18974;DHT22;9621;48.690;9.466;2022-09-17T05:22:42;7.90;99.90
18974;DHT22;9621;48.690;9.466;2022-09-17T05:25:10;7.90;99.90
18974;DHT22;9621;48.690;9.466;2022-09-17T05:27:38;9.10;99.90
18974;DHT22;9621;48.690;9.466;2022-09-17T05:30:08;6.80;99.90
18974;DHT22;9621;48.690;9.466;2022-09-17T05:32:36;8.10;99.90
18974;DHT22;9621;48.690;9.466;2022-09-17T05:35:05;8.40;99.90
18974;DHT22;9621;48.690;9.466;2022-09-17T05:37:33;8.10;99.90
18974;DHT22;9621;48.690;9.466;2022-09-17T05:40:00;7.20;99.90
18974;DHT22;9621;48.690;9.466;2022-09-17T05:42:28;8.10;99.90
18974;DHT22;9621;48.690;9.466;2022-09-17T05:44:56;8.20;99.90
18974;DHT22;9621;48.690;9.466;2022-09-17T05:47:29;8.30;99.90
18974;DHT22;9621;48.690;9.466;2022-09-17T05:49:57;8.30;99.90
18974;DHT22;9621;48.690;9.466;2022-09-17T05:52:27;8.30;99.90
18974;DHT22;9621;48.690;9.466;2022-09-17T05:54:56;7.80;99.90
18974;DHT22;9621;48.690;9.466;2022-09-17T05:57:23;8.40;99.90
18974;DHT22;9621;48.690;9.466;2022-09-17T05:59:50;8.40;99.90
18974;DHT22;9621;48.690;9.466;2022-09-17T06:02:18;8.50;99.90
18974;DHT22;9621;48.690;9.466;2022-09-17T06:04:46;8.50;99.90
18974;DHT22;9621;48.690;9.466;2022-09-17T06:07:14;8.50;99.90
18974;DHT22;9621;48.690;9.466;2022-09-17T06:09:41;8.70;99.90
18974;DHT22;9621;48.690;9.466;2022-09-17T06:12:08;9.30;99.90
18974;DHT22;9621;48.690;9.466;2022-09-17T06:14:35;8.60;99.90
18974;DHT22;9621;48.690;9.466;2022-09-17T06:17:02;9.00;99.90
18974;DHT22;9621;48.690;9.466;2022-09-17T06:19:29;8.70;99.90
18974;DHT22;9621;48.690;9.466;2022-09-17T06:21:58;9.60;99.90
18974;DHT22;9621;48.690;9.466;2022-09-17T06:24:26;9.90;99.90
18974;DHT22;9621;48.690;9.466;2022-09-17T06:26:54;8.90;99.90
18974;DHT22;9621;48.690;9.466;2022-09-17T06:29:21;8.90;99.90
18974;DHT22;9621;48.690;9.466;2022-09-17T06:31:49;9.10;99.90
18974;DHT22;9621;48.690;9.466;2022-09-17T06:34:17;9.90;99.90
18974;DHT22;9621;48.690;9.466;2022-09-17T06:36:45;9.10;99.90
18974;DHT22;9621;48.690;9.466;2022-09-17T06:39:13;9.20;99.90
18974;DHT22;9621;48.690;9.466;2022-09-17T06:41:43;9.20;99.90
18974;DHT22;9621;48.690;9.466;2022-09-17T06:44:10;9.30;99.90
18974;DHT22;9621;48.690;9.466;2022-09-17T06:46:37;10.40;99.90
18974;DHT22;9621;48.690;9.466;2022-09-17T06:49:05;9.40;99.90
18974;DHT22;9621;48.690;9.466;2022-09-17T06:51:32;9.40;99.90
18974;DHT22;9621;48.690;9.466;2022-09-17T06:54:00;9.40;99.90
18974;DHT22;9621;48.690;9.466;2022-09-17T06:56:29;9.40;99.90
18974;DHT22;9621;48.690;9.466;2022-09-17T06:58:59;9.50;99.90
18974;DHT22;9621;48.690;9.466;2022-09-17T07:01:25;9.50;99.90
18974;DHT22;9621;48.690;9.466;2022-09-17T07:03:53;10.80;99.90
18974;DHT22;9621;48.690;9.466;2022-09-17T07:06:20;9.40;99.90
18974;DHT22;9621;48.690;9.466;2022-09-17T07:08:47;10.50;99.90
18974;DHT22;9621;48.690;9.466;2022-09-17T07:11:14;9.30;99.90
18974;DHT22;9621;48.690;9.466;2022-09-17T07:13:43;9.60;99.90
18974;DHT22;9621;48.690;9.466;2022-09-17T07:16:10;10.20;99.90
18974;DHT22;9621;48.690;9.466;2022-09-17T07:18:37;9.50;99.90
18974;DHT22;9621;48.690;9.466;2022-09-17T07:21:05;9.40;99.90
18974;DHT22;9621;48.690;9.466;2022-09-17T07:23:34;9.50;99.90
18974;DHT22;9621;48.690;9.466;2022-09-17T07:26:04;10.30;99.90
18974;DHT22;9621;48.690;9.466;2022-09-17T07:28:31;9.40;99.90
18974;DHT22;9621;48.690;9.466;2022-09-17T07:31:02;9.50;99.90
18974;DHT22;9621;48.690;9.466;2022-09-17T07:59:49;9.20;99.90
18974;DHT22;9621;48.690;9.466;2022-09-17T08:02:16;9.00;99.90
18974;DHT22;9621;48.690;9.466;2022-09-17T08:04:49;8.60;99.90
18974;DHT22;9621;48.690;9.466;2022-09-17T08:07:17;8.90;99.90
18974;DHT22;9621;48.690;9.466;2022-09-17T08:09:44;8.90;99.90
18974;DHT22;9621;48.690;9.466;2022-09-17T08:12:11;8.80;99.90
18974;DHT22;9621;48.690;9.466;2022-09-17T08:14:39;8.70;99.90
18974;DHT22;9621;48.690;9.466;2022-09-17T08:17:07;8.70;99.90
18974;DHT22;9621;48.690;9.466;2022-09-17T08:49:27;8.60;99.90
18974;DHT22;9621;48.690;9.466;2022-09-17T08:52:17;8.70;99.90
18974;DHT22;9621;48.690;9.466;2022-09-17T08:54:51;8.70;99.90
18974;DHT22;9621;48.690;9.466;2022-09-17T08:57:26;8.70;99.90
18974;DHT22;9621;48.690;9.466;2022-09-17T09:11:13;8.90;99.90
18974;DHT22;9621;48.690;9.466;2022-09-17T09:16:25;9.10;99.90
18974;DHT22;9621;48.690;9.466;2022-09-17T09:18:55;9.30;99.90
18974;DHT22;9621;48.690;9.466;2022-09-17T09:21:26;9.30;99.90
18974;DHT22;9621;48.690;9.466;2022-09-17T09:23:55;9.60;99.90
18974;DHT22;9621;48.690;9.466;2022-09-17T09:26:34;9.50;99.90
18974;DHT22;9621;48.690;9.466;2022-09-17T09:29:06;9.80;99.90
18974;DHT22;9621;48.690;9.466;2022-09-17T09:32:06;9.90;99.90
18974;DHT22;9621;48.690;9.466;2022-09-17T09:34:36;10.20;99.90
18974;DHT22;9621;48.690;9.466;2022-09-17T09:52:47;10.30;99.90
18974;DHT22;9621;48.690;9.466;2022-09-17T09:55:28;10.30;99.90
18974;DHT22;9621;48.690;9.466;2022-09-17T09:58:04;10.40;99.90
18974;DHT22;9621;48.690;9.466;2022-09-17T10:00:36;10.50;99.90
18974;DHT22;9621;48.690;9.466;2022-09-17T10:03:36;10.60;99.90
18974;DHT22;9621;48.690;9.466;2022-09-17T10:06:24;10.70;99.90
18974;DHT22;9621;48.690;9.466;2022-09-17T10:15:27;10.50;99.90
18974;DHT22;9621;48.690;9.466;2022-09-17T10:18:11;10.50;99.90
18974;DHT22;9621;48.690;9.466;2022-09-17T10:21:01;10.50;99.90
18974;DHT22;9621;48.690;9.466;2022-09-17T10:54:47;10.30;99.90
18974;DHT22;9621;48.690;9.466;2022-09-17T10:57:22;10.50;99.90
18974;DHT22;9621;48.690;9.466;2022-09-17T11:00:09;10.60;99.90
18974;DHT22;9621;48.690;9.466;2022-09-17T11:05:58;11.00;99.90
18974;DHT22;9621;48.690;9.466;2022-09-17T11:08:32;11.40;99.90
18974;DHT22;9621;48.690;9.466;2022-09-17T11:11:09;11.70;99.90
18974;DHT22;9621;48.690;9.466;2022-09-17T11:13:40;12.10;99.90
18974;DHT22;9621;48.690;9.466;2022-09-17T11:16:14;12.30;99.90
18974;DHT22;9621;48.690;9.466;2022-09-17T11:18:46;12.40;99.90
18974;DHT22;9621;48.690;9.466;2022-09-17T11:21:37;12.50;99.90
18974;DHT22;9621;48.690;9.466;2022-09-17T11:24:37;12.60;99.90
18974;DHT22;9621;48.690;9.466;2022-09-17T11:27:23;12.70;99.90
18974;DHT22;9621;48.690;9.466;2022-09-17T11:30:07;12.70;99.90
18974;DHT22;9621;48.690;9.466;2022-09-17T11:32:46;12.80;99.90
18974;DHT22;9621;48.690;9.466;2022-09-17T11:35:18;12.90;99.90
18974;DHT22;9621;48.690;9.466;2022-09-17T11:37:49;12.90;99.90
18974;DHT22;9621;48.690;9.466;2022-09-17T11:40:21;13.00;99.90
18974;DHT22;9621;48.690;9.466;2022-09-17T11:42:54;13.10;99.90
18974;DHT22;9621;48.690;9.466;2022-09-17T11:45:26;13.10;99.90
18974;DHT22;9621;48.690;9.466;2022-09-17T11:47:59;13.20;99.90
18974;DHT22;9621;48.690;9.466;2022-09-17T11:50:32;13.20;99.90
18974;DHT22;9621;48.690;9.466;2022-09-17T11:53:09;13.20;99.90
18974;DHT22;9621;48.690;9.466;2022-09-17T11:55:44;13.30;99.90
18974;DHT22;9621;48.690;9.466;2022-09-17T11:58:20;13.40;99.90
18974;DHT22;9621;48.690;9.466;2022-09-17T12:00:56;13.40;99.90
18974;DHT22;9621;48.690;9.466;2022-09-17T12:03:29;13.40;99.90
18974;DHT22;9621;48.690;9.466;2022-09-17T12:05:58;13.40;99.90
18974;DHT22;9621;48.690;9.466;2022-09-17T12:08:33;13.40;99.90
18974;DHT22;9621;48.690;9.466;2022-09-17T12:11:08;13.50;99.90
18974;DHT22;9621;48.690;9.466;2022-09-17T12:13:43;13.60;99.90
18974;DHT22;9621;48.690;9.466;2022-09-17T12:16:15;13.80;99.90
18974;DHT22;9621;48.690;9.466;2022-09-17T12:18:55;13.90;99.90
18974;DHT22;9621;48.690;9.466;2022-09-17T12:21:28;13.90;99.90
18974;DHT22;9621;48.690;9.466;2022-09-17T12:23:58;13.90;99.90
18974;DHT22;9621;48.690;9.466;2022-09-17T12:26:40;13.90;99.90
18974;DHT22;9621;48.690;9.466;2022-09-17T12:29:24;13.90;99.90
18974;DHT22;9621;48.690;9.466;2022-09-17T12:31:57;13.90;99.90
18974;DHT22;9621;48.690;9.466;2022-09-17T12:34:34;13.80;99.90
18974;DHT22;9621;48.690;9.466;2022-09-17T12:37:11;13.60;99.90
18974;DHT22;9621;48.690;9.466;2022-09-17T12:39:58;13.30;99.90
18974;DHT22;9621;48.690;9.466;2022-09-17T12:42:41;13.00;99.90
18974;DHT22;9621;48.690;9.466;2022-09-17T12:45:23;12.70;99.90
18974;DHT22;9621;48.690;9.466;2022-09-17T12:48:15;12.40;99.90
18974;DHT22;9621;48.690;9.466;2022-09-17T12:50:56;12.30;99.90
18974;DHT22;9621;48.690;9.466;2022-09-17T12:53:31;12.20;99.90
18974;DHT22;9621;48.690;9.466;2022-09-17T12:56:05;12.00;99.90
18974;DHT22;9621;48.690;9.466;2022-09-17T12:58:58;11.90;99.90
18974;DHT22;9621;48.690;9.466;2022-09-17T13:01:39;11.60;99.90
18974;DHT22;9621;48.690;9.466;2022-09-17T13:28:58;11.10;99.90
18974;DHT22;9621;48.690;9.466;2022-09-17T13:31:46;11.20;99.90
18974;DHT22;9621;48.690;9.466;2022-09-17T13:34:28;11.30;99.90
18974;DHT22;9621;48.690;9.466;2022-09-17T13:36:56;11.30;99.90
18974;DHT22;9621;48.690;9.466;2022-09-17T13:39:42;11.20;99.90
18974;DHT22;9621;48.690;9.466;2022-09-17T13:42:14;11.20;99.90
18974;DHT22;9621;48.690;9.466;2022-09-17T13:44:46;11.00;99.90
18974;DHT22;9621;48.690;9.466;2022-09-17T13:47:21;10.90;99.90
18974;DHT22;9621;48.690;9.466;2022-09-17T13:49:53;10.80;99.90
18974;DHT22;9621;48.690;9.466;2022-09-17T13:52:37;10.70;99.90
18974;DHT22;9621;48.690;9.466;2022-09-17T13:55:07;10.70;99.90
18974;DHT22;9621;48.690;9.466;2022-09-17T13:57:45;10.70;99.90
18974;DHT22;9621;48.690;9.466;2022-09-17T14:00:50;10.70;99.90
18974;DHT22;9621;48.690;9.466;2022-09-17T14:03:47;10.60;99.90
18974;DHT22;9621;48.690;9.466;2022-09-17T14:06:49;10.60;99.90
18974;DHT22;9621;48.690;9.466;2022-09-17T14:09:34;10.60;99.90
18974;DHT22;9621;48.690;9.466;2022-09-17T14:12:01;10.60;99.90
18974;DHT22;9621;48.690;9.466;2022-09-17T14:14:47;10.70;99.90
18974;DHT22;9621;48.690;9.466;2022-09-17T14:17:48;10.80;99.90
18974;DHT22;9621;48.690;9.466;2022-09-17T14:20:17;10.90;99.90
18974;DHT22;9621;48.690;9.466;2022-09-17T14:22:53;10.90;99.90
18974;DHT22;9621;48.690;9.466;2022-09-17T14:25:27;11.00;99.90
18974;DHT22;9621;48.690;9.466;2022-09-17T14:27:57;11.00;99.90
18974;DHT22;9621;48.690;9.466;2022-09-17T14:30:29;11.10;99.90
18974;DHT22;9621;48.690;9.466;2022-09-17T14:33:03;11.10;99.90
18974;DHT22;9621;48.690;9.466;2022-09-17T14:35:34;11.20;99.90
18974;DHT22;9621;48.690;9.466;2022-09-17T14:38:11;11.30;99.90
18974;DHT22;9621;48.690;9.466;2022-09-17T14:40:45;11.40;99.90
18974;DHT22;9621;48.690;9.466;2022-09-17T14:43:18;11.50;99.90
18974;DHT22;9621;48.690;9.466;2022-09-17T14:45:49;11.60;99.90
18974;DHT22;9621;48.690;9.466;2022-09-17T14:48:26;11.60;99.90
18974;DHT22;9621;48.690;9.466;2022-09-17T14:51:12;11.80;99.90
18974;DHT22;9621;48.690;9.466;2022-09-17T14:53:43;11.70;99.90
18974;DHT22;9621;48.690;9.466;2022-09-17T14:56:12;11.90;99.90
18974;DHT22;9621;48.690;9.466;2022-09-17T14:58:41;11.90;99.90
18974;DHT22;9621;48.690;9.466;2022-09-17T15:01:21;12.00;99.90
18974;DHT22;9621;48.690;9.466;2022-09-17T15:04:15;12.10;99.90
18974;DHT22;9621;48.690;9.466;2022-09-17T15:06:45;12.20;99.90
18974;DHT22;9621;48.690;9.466;2022-09-17T15:09:13;12.30;99.90
18974;DHT22;9621;48.690;9.466;2022-09-17T15:11:41;12.30;99.90
18974;DHT22;9621;48.690;9.466;2022-09-17T15:14:14;12.20;99.90
18974;DHT22;9621;48.690;9.466;2022-09-17T15:16:46;12.20;99.90
18974;DHT22;9621;48.690;9.466;2022-09-17T15:19:21;12.10;99.90
18974;DHT22;9621;48.690;9.466;2022-09-17T15:21:51;12.10;99.90
18974;DHT22;9621;48.690;9.466;2022-09-17T15:24:33;12.00;99.90
18974;DHT22;9621;48.690;9.466;2022-09-17T15:27:04;12.00;99.90
18974;DHT22;9621;48.690;9.466;2022-09-17T15:29:36;12.00;99.90
18974;DHT22;9621;48.690;9.466;2022-09-17T15:32:04;12.00;99.90
18974;DHT22;9621;48.690;9.466;2022-09-17T15:34:33;12.00;99.90
18974;DHT22;9621;48.690;9.466;2022-09-17T15:37:03;12.00;99.90
18974;DHT22;9621;48.690;9.466;2022-09-17T15:39:38;12.00;99.90
18974;DHT22;9621;48.690;9.466;2022-09-17T15:42:16;12.00;99.90
18974;DHT22;9621;48.690;9.466;2022-09-17T15:44:43;11.90;99.90
18974;DHT22;9621;48.690;9.466;2022-09-17T15:47:49;11.80;99.90
18974;DHT22;9621;48.690;9.466;2022-09-17T15:50:19;11.70;99.90
18974;DHT22;9621;48.690;9.466;2022-09-17T15:52:47;11.50;99.90
18974;DHT22;9621;48.690;9.466;2022-09-17T15:55:33;11.40;99.90
18974;DHT22;9621;48.690;9.466;2022-09-17T15:58:03;11.40;99.90
18974;DHT22;9621;48.690;9.466;2022-09-17T16:00:30;11.30;99.90
18974;DHT22;9621;48.690;9.466;2022-09-17T16:03:20;11.30;99.90
18974;DHT22;9621;48.690;9.466;2022-09-17T16:06:02;11.20;99.90
18974;DHT22;9621;48.690;9.466;2022-09-17T16:08:33;11.20;99.90
18974;DHT22;9621;48.690;9.466;2022-09-17T16:11:00;11.10;99.90
18974;DHT22;9621;48.690;9.466;2022-09-17T16:13:27;11.10;99.90
18974;DHT22;9621;48.690;9.466;2022-09-17T16:15:54;11.10;99.90
18974;DHT22;9621;48.690;9.466;2022-09-17T16:18:21;11.10;99.90
18974;DHT22;9621;48.690;9.466;2022-09-17T16:20:47;11.10;99.90
18974;DHT22;9621;48.690;9.466;2022-09-17T16:23:16;11.20;99.90
18974;DHT22;9621;48.690;9.466;2022-09-17T16:25:43;11.30;99.90
18974;DHT22;9621;48.690;9.466;2022-09-17T16:28:12;11.20;99.90
18974;DHT22;9621;48.690;9.466;2022-09-17T16:30:43;11.20;99.90
18974;DHT22;9621;48.690;9.466;2022-09-17T16:33:12;11.20;99.90
18974;DHT22;9621;48.690;9.466;2022-09-17T16:35:39;11.10;99.90
18974;DHT22;9621;48.690;9.466;2022-09-17T16:38:07;11.00;99.90
18974;DHT22;9621;48.690;9.466;2022-09-17T16:40:39;10.90;99.90
18974;DHT22;9621;48.690;9.466;2022-09-17T16:43:07;11.00;99.90
18974;DHT22;9621;48.690;9.466;2022-09-17T16:45:34;10.80;99.90
18974;DHT22;9621;48.690;9.466;2022-09-17T16:48:02;10.80;99.90
18974;DHT22;9621;48.690;9.466;2022-09-17T16:50:29;10.70;99.90
18974;DHT22;9621;48.690;9.466;2022-09-17T16:52:56;10.80;99.90
18974;DHT22;9621;48.690;9.466;2022-09-17T16:55:22;10.80;99.90
18974;DHT22;9621;48.690;9.466;2022-09-17T16:57:51;10.80;99.90
18974;DHT22;9621;48.690;9.466;2022-09-17T17:00:19;10.80;99.90
18974;DHT22;9621;48.690;9.466;2022-09-17T17:02:55;10.80;99.90
18974;DHT22;9621;48.690;9.466;2022-09-17T17:05:36;10.80;99.90
18974;DHT22;9621;48.690;9.466;2022-09-17T17:08:07;10.80;99.90
18974;DHT22;9621;48.690;9.466;2022-09-17T17:10:36;10.80;99.90
18974;DHT22;9621;48.690;9.466;2022-09-17T17:13:04;10.80;99.90
18974;DHT22;9621;48.690;9.466;2022-09-17T17:15:31;10.70;99.90
18974;DHT22;9621;48.690;9.466;2022-09-17T17:17:58;10.80;99.90
18974;DHT22;9621;48.690;9.466;2022-09-17T17:20:27;10.80;99.90
18974;DHT22;9621;48.690;9.466;2022-09-17T17:22:55;10.70;99.90
18974;DHT22;9621;48.690;9.466;2022-09-17T17:25:22;10.70;99.90
18974;DHT22;9621;48.690;9.466;2022-09-17T17:27:50;10.70;99.90
18974;DHT22;9621;48.690;9.466;2022-09-17T17:30:18;10.70;99.90
18974;DHT22;9621;48.690;9.466;2022-09-17T17:32:49;10.70;99.90
18974;DHT22;9621;48.690;9.466;2022-09-17T17:35:16;10.70;99.90
18974;DHT22;9621;48.690;9.466;2022-09-17T17:37:43;10.70;99.90
18974;DHT22;9621;48.690;9.466;2022-09-17T17:40:10;10.70;99.90
18974;DHT22;9621;48.690;9.466;2022-09-17T17:42:37;10.70;99.90
18974;DHT22;9621;48.690;9.466;2022-09-17T17:45:09;10.60;99.90
18974;DHT22;9621;48.690;9.466;2022-09-17T17:47:37;10.60;99.90
18974;DHT22;9621;48.690;9.466;2022-09-17T17:50:05;10.60;99.90
18974;DHT22;9621;48.690;9.466;2022-09-17T17:52:33;10.40;99.90
18974;DHT22;9621;48.690;9.466;2022-09-17T17:55:07;10.30;99.90
18974;DHT22;9621;48.690;9.466;2022-09-17T17:57:34;10.10;99.90
18974;DHT22;9621;48.690;9.466;2022-09-17T18:00:02;10.10;99.90
18974;DHT22;9621;48.690;9.466;2022-09-17T18:02:29;9.90;99.90
18974;DHT22;9621;48.690;9.466;2022-09-17T18:04:57;9.80;99.90
18974;DHT22;9621;48.690;9.466;2022-09-17T18:18:07;8.70;99.90
18974;DHT22;9621;48.690;9.466;2022-09-17T18:20:35;8.70;99.90
18974;DHT22;9621;48.690;9.466;2022-09-17T18:23:02;8.40;99.90
18974;DHT22;9621;48.690;9.466;2022-09-17T18:25:29;8.40;99.90
18974;DHT22;9621;48.690;9.466;2022-09-17T18:27:56;8.50;99.90
18974;DHT22;9621;48.690;9.466;2022-09-17T18:30:23;9.60;99.90
18974;DHT22;9621;48.690;9.466;2022-09-17T18:32:50;8.80;99.90
18974;DHT22;9621;48.690;9.466;2022-09-17T18:35:17;8.30;99.90
18974;DHT22;9621;48.690;9.466;2022-09-17T18:37:46;8.20;99.90
18974;DHT22;9621;48.690;9.466;2022-09-17T18:40:12;8.20;99.90
18974;DHT22;9621;48.690;9.466;2022-09-17T18:42:40;8.30;99.90
18974;DHT22;9621;48.690;9.466;2022-09-17T18:45:08;8.20;99.90
18974;DHT22;9621;48.690;9.466;2022-09-17T18:47:35;8.30;99.90
18974;DHT22;9621;48.690;9.466;2022-09-17T18:50:02;8.30;99.90
18974;DHT22;9621;48.690;9.466;2022-09-17T18:52:29;8.30;99.90
18974;DHT22;9621;48.690;9.466;2022-09-17T18:54:57;8.30;99.90
18974;DHT22;9621;48.690;9.466;2022-09-17T18:57:25;8.40;99.90
18974;DHT22;9621;48.690;9.466;2022-09-17T18:59:52;8.40;99.90
18974;DHT22;9621;48.690;9.466;2022-09-17T19:02:19;8.40;99.90
18974;DHT22;9621;48.690;9.466;2022-09-17T19:04:46;8.40;99.90
18974;DHT22;9621;48.690;9.466;2022-09-17T19:07:13;8.50;99.90
18974;DHT22;9621;48.690;9.466;2022-09-17T19:09:40;8.40;99.90
18974;DHT22;9621;48.690;9.466;2022-09-17T19:12:08;8.40;99.90
18974;DHT22;9621;48.690;9.466;2022-09-17T19:14:35;8.50;99.90
18974;DHT22;9621;48.690;9.466;2022-09-17T19:17:02;8.40;99.90
18974;DHT22;9621;48.690;9.466;2022-09-17T19:19:29;8.50;99.90
18974;DHT22;9621;48.690;9.466;2022-09-17T19:21:56;8.40;99.90